Terminal Aerodrome Forecast
Issued by NWS Houston/Galveston, TX

Home | Current Version | Previous Version | Text Only | Print | Product List | Glossary On
Versions: 1 2 3 4 5 6 7 8 9 10 11 12 13 14 15 16 17 18 19 20
000
FTUS44 KHGX 251941 AAA
TAFGLS
TAF AMD
KGLS 251941Z 2520/2618 17010KT 5SM -TSRA BKN040CB BKN070 OVC110
     FM252030 17007KT P6SM VCSH BKN080 OVC250
     FM252200 16006KT P6SM SCT100 BKN250
     FM260900 28003KT P6SM VCSH SCT025
      TEMPO 2611/2615 +SHRA BKN025
     FM261500 VRB07KT P6SM VCTS SCT025CB BKN250 PROB30 2615/2618
      TSRA=

USA.gov is the U.S. government's official web portal to all federal, state and local government web resources and services.